Terminal Aerodrome Forecast
Issued by NWS

Current Version | Previous Version | Text Only | Print | Product List | Glossary On
Versions: 1 2 3 4 5 6 7 8 9 10 11 12 13 14 15 16 17 18 19 20 21 22 23 24 25
000
FTUS42 KRAH 301134
TAFRWI
TAF
KRWI 301134Z 3012/0112 06005KT P6SM BKN008
      TEMPO 3012/3015 SCT008 SCT025 OVC035
     FM301500 06006KT P6SM BKN015 BKN035 OVC150
     FM301900 07006KT P6SM BKN022 BKN045
      TEMPO 3020/3024 SCT025 BKN035 BKN050
     FM010000 09004KT P6SM SCT030 BKN150
     FM010700 11006KT P6SM BKN009 OVC200=

USA.gov is the U.S. government's official web portal to all federal, state and local government web resources and services.